Private Wetterstation Sandau
Wetterdaten: Mittwoch, 07.11.2012
Datum Zeit Temp. A. Feuchte A. Luftdruck Regen Wind Richtung Richtung Taupunkt Windchill
07.11.2012 00:01 6,1 C 87 % 1010,3 hPa 0,0 l/m 11,2 km/h (2 Bft) W 270 4,1 C 3,7 C
07.11.2012 00:06 6,1 C 88 % 1010,3 hPa 0,0 l/m 19,4 km/h (3 Bft) SW 225 4,3 C 2,5 C
07.11.2012 00:11 6,1 C 88 % 1010,3 hPa 0,0 l/m 16,2 km/h (3 Bft) W-SW 247 4,3 C 2,9 C
07.11.2012 00:16 6,1 C 88 % 1010,3 hPa 0,0 l/m 8,6 km/h (2 Bft) S 180 4,3 C 4,3 C
07.11.2012 00:21 6,1 C 88 % 1010,4 hPa 0,5 l/m 30,6 km/h (5 Bft) S-SO 157 4,3 C 1,4 C
07.11.2012 00:26 6,1 C 88 % 1010,3 hPa 0,0 l/m 34,9 km/h (5 Bft) SW 225 4,3 C 1,1 C
07.11.2012 00:31 6,1 C 89 % 1010,1 hPa 0,0 l/m 11,5 km/h (2 Bft) W 270 4,4 C 3,7 C
07.11.2012 00:36 6,1 C 89 % 1010,3 hPa 0,0 l/m 30,2 km/h (5 Bft) W-SW 247 4,4 C 1,5 C
07.11.2012 00:41 6,1 C 89 % 1010,2 hPa 0,0 l/m 10,1 km/h (2 Bft) W 270 4,4 C 4,0 C
07.11.2012 00:46 6,0 C 89 % 1010,1 hPa 0,0 l/m 31,3 km/h (5 Bft) W 270 4,3 C 1,3 C
07.11.2012 00:51 6,1 C 89 % 1010,1 hPa 0,0 l/m 15,8 km/h (3 Bft) W 270 4,4 C 3,0 C
07.11.2012 00:56 6,1 C 89 % 1010,2 hPa 0,0 l/m 21,6 km/h (4 Bft) W 270 4,4 C 2,3 C
07.11.2012 01:01 6,1 C 90 % 1009,9 hPa 0,0 l/m 28,4 km/h (4 Bft) W 270 4,6 C 1,6 C
07.11.2012 01:06 6,1 C 90 % 1009,8 hPa 0,0 l/m 19,4 km/h (3 Bft) W-NW 292 4,6 C 2,5 C
07.11.2012 01:11 6,1 C 90 % 1009,9 hPa 0,0 l/m 23,0 km/h (4 Bft) W 270 4,6 C 2,1 C
07.11.2012 01:16 6,1 C 90 % 1009,8 hPa 0,0 l/m 23,4 km/h (4 Bft) W-SW 247 4,6 C 2,1 C
07.11.2012 01:21 6,2 C 90 % 1009,8 hPa 0,5 l/m 14,4 km/h (3 Bft) W-SW 247 4,7 C 3,3 C
07.11.2012 01:26 6,2 C 91 % 1009,9 hPa 0,0 l/m 29,2 km/h (5 Bft) W-SW 247 4,8 C 1,7 C
07.11.2012 01:31 6,2 C 91 % 1009,9 hPa 0,0 l/m 21,6 km/h (4 Bft) W-NW 292 4,8 C 2,4 C
07.11.2012 01:36 6,3 C 91 % 1010,0 hPa 0,0 l/m 20,9 km/h (4 Bft) W 270 4,9 C 2,6 C
07.11.2012 01:41 6,3 C 91 % 1009,6 hPa 0,0 l/m 27,0 km/h (4 Bft) W 270 4,9 C 2,0 C
07.11.2012 01:46 6,3 C 91 % 1009,8 hPa 0,0 l/m 13,3 km/h (3 Bft) W-SW 247 4,9 C 3,6 C
07.11.2012 01:51 6,4 C 91 % 1009,8 hPa 0,0 l/m 12,2 km/h (2 Bft) SW 225 5,0 C 3,9 C
07.11.2012 01:56 6,4 C 91 % 1009,9 hPa 0,0 l/m 19,1 km/h (3 Bft) W-SW 247 5,0 C 2,9 C
07.11.2012 02:01 6,4 C 91 % 1010,0 hPa 0,0 l/m 18,7 km/h (3 Bft) W 270 5,0 C 3,0 C
07.11.2012 02:06 6,5 C 91 % 1009,8 hPa 0,0 l/m 27,0 km/h (4 Bft) W-SW 247 5,1 C 2,3 C
07.11.2012 02:11 6,6 C 91 % 1009,9 hPa 0,0 l/m 33,8 km/h (5 Bft) W-SW 247 5,2 C 1,8 C
07.11.2012 02:16 6,6 C 91 % 1009,9 hPa 0,0 l/m 21,6 km/h (4 Bft) W-SW 247 5,2 C 2,9 C
07.11.2012 02:21 6,6 C 91 % 1010,0 hPa 0,0 l/m 19,8 km/h (3 Bft) W 270 5,2 C 3,1 C
07.11.2012 02:26 6,7 C 91 % 1009,9 hPa 0,0 l/m 25,9 km/h (4 Bft) W-SW 247 5,3 C 2,6 C
07.11.2012 02:31 6,8 C 91 % 1010,1 hPa 0,0 l/m 11,2 km/h (2 Bft) W-NW 292 5,4 C 4,6 C
07.11.2012 02:36 6,8 C 91 % 1009,8 hPa 0,0 l/m 13,3 km/h (3 Bft) W 270 5,4 C 4,2 C
07.11.2012 02:41 6,9 C 91 % 1009,8 hPa 0,0 l/m 24,8 km/h (4 Bft) W-SW 247 5,5 C 3,0 C
07.11.2012 02:46 6,9 C 91 % 1009,9 hPa 0,0 l/m 13,7 km/h (3 Bft) S-SW 202 5,5 C 4,3 C
07.11.2012 02:51 6,9 C 91 % 1010,0 hPa 0,0 l/m 14,8 km/h (3 Bft) W-SW 247 5,5 C 4,1 C
07.11.2012 02:56 7,0 C 91 % 1009,9 hPa 0,0 l/m 12,6 km/h (3 Bft) W 270 5,6 C 4,6 C
07.11.2012 03:01 7,1 C 91 % 1009,9 hPa 0,0 l/m 16,6 km/h (3 Bft) W-SW 247 5,7 C 4,1 C
07.11.2012 03:06 7,2 C 91 % 1010,0 hPa 0,0 l/m 31,7 km/h (5 Bft) W 270 5,8 C 2,8 C
07.11.2012 03:11 7,2 C 91 % 1009,9 hPa 0,0 l/m 27,0 km/h (4 Bft) W 270 5,8 C 3,2 C
07.11.2012 03:16 7,2 C 91 % 1009,9 hPa 0,0 l/m 7,6 km/h (2 Bft) S-SW 202 5,8 C 5,8 C
07.11.2012 03:21 7,3 C 91 % 1010,1 hPa 0,0 l/m 18,7 km/h (3 Bft) W 270 5,9 C 4,1 C
07.11.2012 03:26 7,3 C 91 % 1010,2 hPa 0,0 l/m 15,8 km/h (3 Bft) W-SW 247 5,9 C 4,5 C
07.11.2012 03:31 7,4 C 91 % 1010,3 hPa 0,0 l/m 32,0 km/h (5 Bft) W 270 6,0 C 3,0 C
07.11.2012 03:36 7,4 C 91 % 1010,3 hPa 0,0 l/m 18,4 km/h (3 Bft) SW 225 6,0 C 4,3 C
07.11.2012 03:41 7,5 C 90 % 1010,3 hPa 0,0 l/m 18,0 km/h (3 Bft) W 270 6,0 C 4,4 C
07.11.2012 03:46 7,5 C 90 % 1010,2 hPa 0,0 l/m 13,7 km/h (3 Bft) SW 225 6,0 C 5,0 C
07.11.2012 03:51 7,6 C 90 % 1010,3 hPa 0,0 l/m 5,4 km/h (1 Bft) W 270 6,1 C 6,9 C
07.11.2012 03:56 7,6 C 90 % 1010,3 hPa 0,0 l/m 16,2 km/h (3 Bft) SW 225 6,1 C 4,8 C
07.11.2012 04:01 7,6 C 90 % 1010,4 hPa 0,0 l/m 14,0 km/h (3 Bft) W 270 6,1 C 5,1 C
07.11.2012 04:06 7,6 C 91 % 1010,4 hPa 0,0 l/m 12,2 km/h (2 Bft) W-SW 247 6,2 C 5,4 C
07.11.2012 04:11 7,6 C 91 % 1010,6 hPa 0,0 l/m 7,6 km/h (2 Bft) W 270 6,2 C 6,3 C
07.11.2012 04:16 7,6 C 91 % 1010,6 hPa 0,0 l/m 19,1 km/h (3 Bft) W 270 6,2 C 4,4 C
07.11.2012 04:21 7,6 C 91 % 1010,7 hPa 0,0 l/m 14,0 km/h (3 Bft) W 270 6,2 C 5,1 C
07.11.2012 04:26 7,6 C 91 % 1010,8 hPa 0,0 l/m 12,2 km/h (2 Bft) W-NW 292 6,2 C 5,4 C
07.11.2012 04:31 7,6 C 91 % 1010,7 hPa 0,0 l/m 15,8 km/h (3 Bft) W 270 6,2 C 4,8 C
07.11.2012 04:36 7,6 C 91 % 1010,8 hPa 0,0 l/m 13,7 km/h (3 Bft) W-SW 247 6,2 C 5,1 C
07.11.2012 04:41 7,6 C 91 % 1010,7 hPa 0,0 l/m 11,5 km/h (2 Bft) W 270 6,2 C 5,5 C
07.11.2012 04:46 7,6 C 92 % 1010,9 hPa 0,0 l/m 8,6 km/h (2 Bft) SW 225 6,4 C 6,1 C
07.11.2012 04:51 7,6 C 92 % 1011,0 hPa 0,0 l/m 19,8 km/h (3 Bft) W-NW 292 6,4 C 4,4 C
07.11.2012 04:56 7,6 C 92 % 1011,0 hPa 0,0 l/m 4,7 km/h (1 Bft) W-SW 247 6,4 C 7,1 C
07.11.2012 05:01 7,7 C 92 % 1011,1 hPa 0,5 l/m 9,7 km/h (2 Bft) W-NW 292 6,5 C 5,9 C
07.11.2012 05:06 7,8 C 92 % 1011,2 hPa 0,0 l/m 7,6 km/h (2 Bft) W-SW 247 6,6 C 6,5 C
07.11.2012 05:11 7,8 C 92 % 1011,1 hPa 0,0 l/m 10,1 km/h (2 Bft) W-SW 247 6,6 C 6,0 C
07.11.2012 05:16 7,8 C 92 % 1011,2 hPa 0,0 l/m 3,2 km/h (1 Bft) W 270 6,6 C 7,8 C
07.11.2012 05:21 7,8 C 92 % 1011,2 hPa 0,0 l/m 12,2 km/h (2 Bft) W 270 6,6 C 5,6 C
07.11.2012 05:26 7,8 C 92 % 1011,3 hPa 0,0 l/m 7,9 km/h (2 Bft) W-SW 247 6,6 C 6,4 C
07.11.2012 05:31 7,8 C 92 % 1011,2 hPa 0,0 l/m 11,9 km/h (2 Bft) W 270 6,6 C 5,7 C
07.11.2012 05:36 7,9 C 92 % 1011,3 hPa 0,0 l/m 10,1 km/h (2 Bft) NW 315 6,7 C 6,1 C
07.11.2012 05:41 7,9 C 92 % 1011,3 hPa 0,0 l/m 3,6 km/h (1 Bft) W 270 6,7 C 7,9 C
07.11.2012 05:46 7,9 C 92 % 1011,2 hPa 0,0 l/m 13,3 km/h (3 Bft) W-SW 247 6,7 C 5,6 C
07.11.2012 05:51 7,9 C 92 % 1011,4 hPa 0,0 l/m 5,0 km/h (1 Bft) W-SW 247 6,7 C 7,4 C
07.11.2012 05:56 7,9 C 92 % 1011,7 hPa 0,0 l/m 11,2 km/h (2 Bft) W-SW 247 6,7 C 5,9 C
07.11.2012 06:01 7,9 C 92 % 1011,8 hPa 0,0 l/m 4,0 km/h (1 Bft) W 270 6,7 C 7,9 C
07.11.2012 06:06 7,9 C 92 % 1011,7 hPa 0,0 l/m 11,2 km/h (2 Bft) W-NW 292 6,7 C 5,9 C
07.11.2012 06:11 7,9 C 92 % 1011,7 hPa 0,0 l/m 5,0 km/h (1 Bft) W-NW 292 6,7 C 7,4 C
07.11.2012 06:16 7,9 C 92 % 1011,8 hPa 0,5 l/m 6,1 km/h (2 Bft) W-SW 247 6,7 C 7,0 C
07.11.2012 06:21 8,0 C 92 % 1012,0 hPa 0,0 l/m 2,9 km/h (1 Bft) W 270 6,8 C 8,0 C
07.11.2012 06:26 8,1 C 92 % 1012,0 hPa 0,0 l/m 6,1 km/h (2 Bft) SW 225 6,9 C 7,3 C
07.11.2012 06:31 8,1 C 92 % 1011,9 hPa 0,0 l/m 8,6 km/h (2 Bft) W-SW 247 6,9 C 6,6 C
07.11.2012 06:36 8,1 C 93 % 1012,0 hPa 0,0 l/m 5,8 km/h (2 Bft) W-SW 247 7,0 C 7,3 C
07.11.2012 06:41 8,1 C 92 % 1012,0 hPa 0,0 l/m 9,4 km/h (2 Bft) N-NW 337 6,9 C 6,5 C
07.11.2012 06:46 8,1 C 93 % 1012,1 hPa 0,0 l/m 14,8 km/h (3 Bft) W 270 7,0 C 5,6 C
07.11.2012 06:51 8,2 C 93 % 1012,2 hPa 0,0 l/m 11,5 km/h (2 Bft) W-SW 247 7,1 C 6,2 C
07.11.2012 06:56 8,2 C 92 % 1012,3 hPa 0,0 l/m 6,1 km/h (2 Bft) W 270 7,0 C 7,4 C
07.11.2012 07:01 8,2 C 93 % 1012,5 hPa 0,0 l/m 11,9 km/h (2 Bft) W-NW 292 7,1 C 6,2 C
07.11.2012 07:06 8,3 C 93 % 1012,4 hPa 0,0 l/m 12,2 km/h (2 Bft) W-SW 247 7,2 C 6,2 C
07.11.2012 07:11 8,3 C 92 % 1012,7 hPa 0,0 l/m 9,7 km/h (2 Bft) W-NW 292 7,1 C 6,7 C
07.11.2012 07:16 8,3 C 92 % 1012,7 hPa 0,0 l/m 9,7 km/h (2 Bft) W 270 7,1 C 6,7 C
07.11.2012 07:21 8,4 C 92 % 1012,7 hPa 0,0 l/m 14,4 km/h (3 Bft) W-NW 292 7,2 C 6,0 C
07.11.2012 07:26 8,3 C 92 % 1012,8 hPa 0,0 l/m 2,9 km/h (1 Bft) W-NW 292 7,1 C 8,3 C
07.11.2012 07:31 8,4 C 93 % 1012,9 hPa 0,0 l/m 9,0 km/h (2 Bft) W-NW 292 7,3 C 6,9 C
07.11.2012 07:36 8,3 C 93 % 1013,1 hPa 0,0 l/m 10,4 km/h (2 Bft) W-NW 292 7,2 C 6,5 C
07.11.2012 07:41 8,3 C 93 % 1013,2 hPa 0,5 l/m 6,1 km/h (2 Bft) W-NW 292 7,2 C 7,5 C
07.11.2012 07:46 8,4 C 93 % 1013,2 hPa 0,0 l/m 2,5 km/h (1 Bft) W-NW 292 7,3 C 8,4 C
07.11.2012 07:51 8,4 C 93 % 1013,4 hPa 0,0 l/m 7,6 km/h (2 Bft) W-NW 292 7,3 C 7,2 C
07.11.2012 07:56 8,4 C 93 % 1013,4 hPa 0,0 l/m 4,7 km/h (1 Bft) NW 315 7,3 C 8,0 C
07.11.2012 08:01 8,4 C 93 % 1013,5 hPa 0,0 l/m 5,8 km/h (2 Bft) W-NW 292 7,3 C 7,7 C
07.11.2012 08:06 8,4 C 93 % 1013,7 hPa 0,0 l/m 4,0 km/h (1 Bft) W-NW 292 7,3 C 8,4 C
07.11.2012 08:11 8,4 C 93 % 1013,5 hPa 0,0 l/m 4,7 km/h (1 Bft) W 270 7,3 C 8,0 C
07.11.2012 08:16 8,4 C 93 % 1013,6 hPa 0,0 l/m 4,7 km/h (1 Bft) NW 315 7,3 C 8,0 C
07.11.2012 08:21 8,5 C 93 % 1013,8 hPa 0,0 l/m 11,2 km/h (2 Bft) W-NW 292 7,4 C 6,6 C
07.11.2012 08:26 8,6 C 93 % 1013,8 hPa 0,0 l/m 6,1 km/h (2 Bft) W 270 7,5 C 7,8 C
07.11.2012 08:31 8,7 C 93 % 1013,9 hPa 0,0 l/m 9,7 km/h (2 Bft) W-NW 292 7,6 C 7,1 C
07.11.2012 08:36 8,7 C 93 % 1014,1 hPa 0,0 l/m 17,3 km/h (3 Bft) NW 315 7,6 C 6,0 C
07.11.2012 08:41 8,6 C 93 % 1014,4 hPa 0,0 l/m 5,0 km/h (1 Bft) W 270 7,5 C 8,2 C
07.11.2012 08:46 8,8 C 93 % 1014,2 hPa 0,0 l/m 1,8 km/h (1 Bft) NW 315 7,7 C 8,8 C
07.11.2012 08:51 8,8 C 93 % 1014,5 hPa 0,0 l/m 11,2 km/h (2 Bft) W-NW 292 7,7 C 7,0 C
07.11.2012 08:56 8,9 C 93 % 1014,7 hPa 0,0 l/m 6,5 km/h (2 Bft) W 270 7,8 C 8,1 C
07.11.2012 09:01 8,9 C 92 % 1014,7 hPa 0,0 l/m 18,7 km/h (3 Bft) W-NW 292 7,7 C 6,1 C
07.11.2012 09:06 9,0 C 92 % 1014,7 hPa 0,0 l/m 16,6 km/h (3 Bft) W-NW 292 7,8 C 6,5 C
07.11.2012 09:11 9,0 C 92 % 1014,9 hPa 0,0 l/m 16,9 km/h (3 Bft) W-SW 247 7,8 C 6,4 C
07.11.2012 09:16 9,1 C 91 % 1015,0 hPa 0,0 l/m 14,8 km/h (3 Bft) N-NW 337 7,7 C 6,8 C
07.11.2012 09:21 9,1 C 91 % 1015,2 hPa 0,0 l/m 14,8 km/h (3 Bft) W-NW 292 7,7 C 6,8 C
07.11.2012 09:26 9,1 C 90 % 1015,1 hPa 0,0 l/m 6,1 km/h (2 Bft) W-SW 247 7,5 C 8,4 C
07.11.2012 09:31 9,1 C 89 % 1015,0 hPa 0,0 l/m 7,6 km/h (2 Bft) W 270 7,4 C 8,0 C
07.11.2012 09:36 9,1 C 89 % 1015,2 hPa 0,0 l/m 20,9 km/h (4 Bft) W-NW 292 7,4 C 6,2 C
07.11.2012 09:41 9,2 C 88 % 1015,4 hPa 0,0 l/m 9,4 km/h (2 Bft) W-NW 292 7,3 C 7,8 C
07.11.2012 09:46 9,2 C 88 % 1015,5 hPa 0,0 l/m 9,7 km/h (2 Bft) W-NW 292 7,3 C 7,7 C
07.11.2012 09:51 9,2 C 88 % 1015,6 hPa 0,0 l/m 8,3 km/h (2 Bft) W-NW 292 7,3 C 8,0 C
07.11.2012 09:56 9,3 C 88 % 1015,7 hPa 0,0 l/m 12,6 km/h (3 Bft) W-NW 292 7,4 C 7,4 C
07.11.2012 10:01 9,4 C 88 % 1015,7 hPa 0,0 l/m 12,6 km/h (3 Bft) W-NW 292 7,5 C 7,5 C
07.11.2012 10:06 9,5 C 87 % 1015,7 hPa 0,0 l/m 11,2 km/h (2 Bft) W-NW 292 7,4 C 7,8 C
07.11.2012 10:11 9,6 C 87 % 1016,0 hPa 0,0 l/m 11,9 km/h (2 Bft) NW 315 7,5 C 7,8 C
07.11.2012 10:16 9,6 C 87 % 1015,9 hPa 0,0 l/m 14,0 km/h (3 Bft) NW 315 7,5 C 7,5 C
07.11.2012 10:21 9,8 C 87 % 1015,9 hPa 0,0 l/m 14,8 km/h (3 Bft) NW 315 7,7 C 7,7 C
07.11.2012 10:26 9,9 C 86 % 1016,0 hPa 0,0 l/m 10,4 km/h (2 Bft) W-NW 292 7,7 C 8,4 C
07.11.2012 10:31 9,9 C 85 % 1016,2 hPa 0,0 l/m 11,9 km/h (2 Bft) W 270 7,5 C 8,2 C
07.11.2012 10:36 10,0 C 85 % 1016,2 hPa 0,0 l/m 21,2 km/h (4 Bft) W-NW 292 7,6 C 7,3 C
07.11.2012 10:41 10,1 C 85 % 1016,4 hPa 0,0 l/m 15,1 km/h (3 Bft) N-NW 337 7,7 C 10,1 C
07.11.2012 10:46 10,1 C 84 % 1016,6 hPa 0,0 l/m 15,5 km/h (3 Bft) N-NW 337 7,5 C 10,1 C
07.11.2012 10:51 10,1 C 84 % 1016,6 hPa 0,0 l/m 27,0 km/h (4 Bft) W-NW 292 7,5 C 10,1 C
07.11.2012 10:56 10,1 C 83 % 1016,5 hPa 0,0 l/m 6,5 km/h (2 Bft) W 270 7,3 C 10,1 C
07.11.2012 11:01 10,2 C 83 % 1016,5 hPa 0,0 l/m 19,4 km/h (3 Bft) NW 315 7,4 C 10,2 C
07.11.2012 11:06 10,2 C 83 % 1016,7 hPa 0,0 l/m 20,5 km/h (4 Bft) W-NW 292 7,4 C 10,2 C
07.11.2012 11:11 10,1 C 83 % 1016,7 hPa 0,0 l/m 9,7 km/h (2 Bft) NW 315 7,3 C 10,1 C
07.11.2012 11:16 10,1 C 82 % 1016,8 hPa 0,0 l/m 28,1 km/h (4 Bft) W 270 7,2 C 10,1 C
07.11.2012 11:21 10,1 C 83 % 1016,8 hPa 0,0 l/m 10,1 km/h (2 Bft) NW 315 7,3 C 10,1 C
07.11.2012 11:26 10,1 C 83 % 1016,9 hPa 0,0 l/m 19,1 km/h (3 Bft) W-NW 292 7,3 C 10,1 C
07.11.2012 11:31 10,2 C 83 % 1017,0 hPa 0,0 l/m 15,8 km/h (3 Bft) NW 315 7,4 C 10,2 C
07.11.2012 11:36 10,3 C 82 % 1017,1 hPa 0,0 l/m 14,4 km/h (3 Bft) N-NW 337 7,4 C 10,3 C
07.11.2012 11:41 10,3 C 82 % 1017,0 hPa 0,0 l/m 10,1 km/h (2 Bft) W-NW 292 7,4 C 10,3 C
07.11.2012 11:46 10,3 C 82 % 1017,1 hPa 0,0 l/m 19,1 km/h (3 Bft) NW 315 7,4 C 10,3 C
07.11.2012 11:51 10,3 C 83 % 1016,9 hPa 0,0 l/m 10,1 km/h (2 Bft) W-NW 292 7,5 C 10,3 C
07.11.2012 11:56 10,2 C 84 % 1017,0 hPa 0,0 l/m 14,8 km/h (3 Bft) W-NW 292 7,6 C 10,2 C
07.11.2012 12:01 10,1 C 84 % 1017,2 hPa 0,0 l/m 7,6 km/h (2 Bft) W-NW 292 7,5 C 10,1 C
07.11.2012 12:06 10,1 C 85 % 1017,2 hPa 0,0 l/m 9,7 km/h (2 Bft) W-SW 247 7,7 C 10,1 C
07.11.2012 12:11 10,3 C 85 % 1017,1 hPa 0,0 l/m 24,5 km/h (4 Bft) W 270 7,9 C 10,3 C
07.11.2012 12:16 10,4 C 85 % 1017,3 hPa 0,0 l/m 3,2 km/h (1 Bft) NW 315 8,0 C 10,4 C
07.11.2012 12:21 10,4 C 84 % 1017,3 hPa 0,0 l/m 4,7 km/h (1 Bft) W 270 7,8 C 10,4 C
07.11.2012 12:26 10,4 C 84 % 1017,2 hPa 0,0 l/m 13,3 km/h (3 Bft) W-NW 292 7,8 C 10,4 C
07.11.2012 12:31 10,4 C 84 % 1017,3 hPa 0,0 l/m 7,9 km/h (2 Bft) W 270 7,8 C 10,4 C
07.11.2012 12:36 10,4 C 85 % 1017,3 hPa 0,0 l/m 10,4 km/h (2 Bft) W 270 8,0 C 10,4 C
07.11.2012 12:41 10,5 C 85 % 1017,3 hPa 0,0 l/m 16,6 km/h (3 Bft) W 270 8,1 C 10,5 C
07.11.2012 12:46 10,7 C 85 % 1017,4 hPa 0,0 l/m 13,0 km/h (3 Bft) W-NW 292 8,3 C 10,7 C
07.11.2012 12:51 10,9 C 84 % 1017,3 hPa 0,0 l/m 11,2 km/h (2 Bft) W-NW 292 8,3 C 10,9 C
07.11.2012 12:56 10,9 C 84 % 1017,4 hPa 0,0 l/m 11,5 km/h (2 Bft) NW 315 8,3 C 10,9 C
07.11.2012 13:01 11,0 C 83 % 1017,4 hPa 0,0 l/m 10,8 km/h (2 Bft) W-SW 247 8,2 C 11,0 C
07.11.2012 13:06 11,1 C 83 % 1017,4 hPa 0,0 l/m 9,4 km/h (2 Bft) W-NW 292 8,3 C 11,1 C
07.11.2012 13:11 11,1 C 83 % 1017,5 hPa 0,0 l/m 20,9 km/h (4 Bft) W-SW 247 8,3 C 11,1 C
07.11.2012 13:16 11,1 C 83 % 1017,6 hPa 0,0 l/m 16,2 km/h (3 Bft) NW 315 8,3 C 11,1 C
07.11.2012 13:21 10,9 C 84 % 1017,5 hPa 0,0 l/m 16,9 km/h (3 Bft) NW 315 8,3 C 10,9 C
07.11.2012 13:26 10,8 C 86 % 1017,6 hPa 0,0 l/m 6,1 km/h (2 Bft) N-NW 337 8,6 C 10,8 C
07.11.2012 13:31 10,6 C 87 % 1017,7 hPa 0,0 l/m 12,2 km/h (2 Bft) W 270 8,5 C 10,6 C
07.11.2012 13:36 10,4 C 87 % 1017,7 hPa 0,0 l/m 7,2 km/h (2 Bft) NW 315 8,3 C 10,4 C
07.11.2012 13:41 10,3 C 88 % 1017,5 hPa 0,0 l/m 4,7 km/h (1 Bft) W-NW 292 8,4 C 10,3 C
07.11.2012 13:46 10,3 C 88 % 1017,6 hPa 0,0 l/m 5,0 km/h (1 Bft) W-NW 292 8,4 C 10,3 C
07.11.2012 13:51 10,2 C 89 % 1017,6 hPa 0,0 l/m 9,0 km/h (2 Bft) W-NW 292 8,5 C 10,2 C
07.11.2012 13:56 10,1 C 89 % 1017,5 hPa 0,0 l/m 6,1 km/h (2 Bft) W 270 8,4 C 10,1 C
07.11.2012 14:01 10,1 C 89 % 1017,5 hPa 0,0 l/m 14,4 km/h (3 Bft) W 270 8,4 C 10,1 C
07.11.2012 14:06 10,2 C 89 % 1017,6 hPa 0,0 l/m 3,6 km/h (1 Bft) N-NW 337 8,5 C 10,2 C
07.11.2012 14:11 10,3 C 90 % 1017,5 hPa 0,0 l/m 2,2 km/h (1 Bft) W-SW 247 8,7 C 10,3 C
07.11.2012 14:16 10,3 C 90 % 1017,6 hPa 0,0 l/m 30,2 km/h (5 Bft) W 270 8,7 C 10,3 C
07.11.2012 14:21 10,4 C 90 % 1017,6 hPa 0,0 l/m 5,8 km/h (2 Bft) W-SW 247 8,8 C 10,4 C
07.11.2012 14:26 10,5 C 90 % 1017,6 hPa 0,0 l/m 6,1 km/h (2 Bft) W 270 8,9 C 10,5 C
07.11.2012 14:31 10,5 C 90 % 1017,6 hPa 0,0 l/m 6,8 km/h (2 Bft) W-NW 292 8,9 C 10,5 C
07.11.2012 14:36 10,6 C 89 % 1017,7 hPa 0,0 l/m 11,9 km/h (2 Bft) W 270 8,9 C 10,6 C
07.11.2012 14:41 10,6 C 89 % 1017,7 hPa 0,0 l/m 8,6 km/h (2 Bft) W-SW 247 8,9 C 10,6 C
07.11.2012 14:46 10,6 C 90 % 1017,7 hPa 0,0 l/m 7,6 km/h (2 Bft) W-SW 247 9,0 C 10,6 C
07.11.2012 14:51 10,7 C 90 % 1017,7 hPa 0,0 l/m 15,8 km/h (3 Bft) W-NW 292 9,1 C 10,7 C
07.11.2012 14:56 10,8 C 89 % 1017,9 hPa 0,0 l/m 15,5 km/h (3 Bft) W 270 9,1 C 10,8 C
07.11.2012 15:01 10,8 C 88 % 1017,9 hPa 0,0 l/m 11,9 km/h (2 Bft) NW 315 8,9 C 10,8 C
07.11.2012 15:06 10,8 C 88 % 1018,0 hPa 0,0 l/m 28,4 km/h (4 Bft) W-NW 292 8,9 C 10,8 C
07.11.2012 15:11 10,9 C 88 % 1018,0 hPa 0,0 l/m 13,7 km/h (3 Bft) W-NW 292 9,0 C 10,9 C
07.11.2012 15:16 10,9 C 87 % 1017,9 hPa 0,0 l/m 6,5 km/h (2 Bft) W-SW 247 8,8 C 10,9 C
07.11.2012 15:21 10,9 C 87 % 1018,0 hPa 0,0 l/m 12,2 km/h (2 Bft) W-NW 292 8,8 C 10,9 C
07.11.2012 15:26 11,0 C 87 % 1017,9 hPa 0,0 l/m 9,4 km/h (2 Bft) W-NW 292 8,9 C 11,0 C
07.11.2012 15:31 11,0 C 87 % 1018,0 hPa 0,0 l/m 20,5 km/h (4 Bft) N-NW 337 8,9 C 11,0 C
07.11.2012 15:36 10,9 C 87 % 1018,0 hPa 0,0 l/m 12,6 km/h (3 Bft) W-NW 292 8,8 C 10,9 C
07.11.2012 15:41 10,9 C 86 % 1018,2 hPa 0,0 l/m 11,2 km/h (2 Bft) S-SW 202 8,7 C 10,9 C
07.11.2012 15:46 10,9 C 86 % 1018,1 hPa 0,0 l/m 11,2 km/h (2 Bft) W-SW 247 8,7 C 10,9 C
07.11.2012 15:51 10,9 C 86 % 1018,2 hPa 0,0 l/m 19,4 km/h (3 Bft) W-NW 292 8,7 C 10,9 C
07.11.2012 15:56 10,9 C 87 % 1018,2 hPa 0,0 l/m 5,8 km/h (2 Bft) W-NW 292 8,8 C 10,9 C
07.11.2012 16:01 10,8 C 87 % 1018,3 hPa 0,0 l/m 14,8 km/h (3 Bft) NW 315 8,7 C 10,8 C
07.11.2012 16:06 10,8 C 87 % 1018,2 hPa 0,0 l/m 9,0 km/h (2 Bft) W-SW 247 8,7 C 10,8 C
07.11.2012 16:11 10,7 C 87 % 1018,3 hPa 0,0 l/m 22,0 km/h (4 Bft) W 270 8,6 C 10,7 C
07.11.2012 16:16 10,6 C 88 % 1018,3 hPa 0,0 l/m 16,9 km/h (3 Bft) W 270 8,7 C 10,6 C
07.11.2012 16:21 10,6 C 88 % 1018,2 hPa 0,0 l/m 24,1 km/h (4 Bft) W 270 8,7 C 10,6 C
07.11.2012 16:26 10,5 C 88 % 1018,2 hPa 0,0 l/m 19,8 km/h (3 Bft) W-SW 247 8,6 C 10,5 C
07.11.2012 16:31 10,5 C 88 % 1018,2 hPa 0,0 l/m 15,8 km/h (3 Bft) W-SW 247 8,6 C 10,5 C
07.11.2012 16:36 10,4 C 89 % 1018,2 hPa 0,0 l/m 13,3 km/h (3 Bft) W-SW 247 8,7 C 10,4 C
07.11.2012 16:41 10,4 C 89 % 1018,3 hPa 0,0 l/m 10,8 km/h (2 Bft) W-SW 247 8,7 C 10,4 C
07.11.2012 16:46 10,4 C 89 % 1018,3 hPa 0,0 l/m 9,7 km/h (2 Bft) W-NW 292 8,7 C 10,4 C
07.11.2012 16:51 10,4 C 89 % 1018,3 hPa 0,0 l/m 14,8 km/h (3 Bft) W 270 8,7 C 10,4 C
07.11.2012 16:56 10,5 C 88 % 1018,5 hPa 0,0 l/m 21,2 km/h (4 Bft) W 270 8,6 C 10,5 C
07.11.2012 17:01 10,5 C 88 % 1018,5 hPa 0,0 l/m 6,1 km/h (2 Bft) SW 225 8,6 C 10,5 C
07.11.2012 17:06 10,5 C 88 % 1018,5 hPa 0,0 l/m 5,4 km/h (1 Bft) W-SW 247 8,6 C 10,5 C
07.11.2012 17:11 10,5 C 88 % 1018,5 hPa 0,0 l/m 17,3 km/h (3 Bft) W 270 8,6 C 10,5 C
07.11.2012 17:16 10,4 C 88 % 1018,5 hPa 0,0 l/m 13,3 km/h (3 Bft) W-NW 292 8,5 C 10,4 C
07.11.2012 17:21 10,4 C 87 % 1018,5 hPa 0,0 l/m 3,2 km/h (1 Bft) SW 225 8,3 C 10,4 C
07.11.2012 17:26 10,4 C 87 % 1018,5 hPa 0,0 l/m 6,1 km/h (2 Bft) W-NW 292 8,3 C 10,4 C
07.11.2012 17:31 10,3 C 87 % 1018,6 hPa 0,0 l/m 16,6 km/h (3 Bft) W-NW 292 8,2 C 10,3 C
07.11.2012 17:36 10,3 C 87 % 1018,6 hPa 0,0 l/m 5,4 km/h (1 Bft) W-SW 247 8,2 C 10,3 C
07.11.2012 17:41 10,3 C 86 % 1018,5 hPa 0,0 l/m 18,0 km/h (3 Bft) W-SW 247 8,1 C 10,3 C
07.11.2012 17:46 10,2 C 86 % 1018,5 hPa 0,0 l/m 6,5 km/h (2 Bft) S 180 8,0 C 10,2 C
07.11.2012 17:51 10,3 C 86 % 1018,7 hPa 0,0 l/m 6,5 km/h (2 Bft) W 270 8,1 C 10,3 C
07.11.2012 17:56 10,2 C 85 % 1018,5 hPa 0,0 l/m 10,1 km/h (2 Bft) W 270 7,8 C 10,2 C
07.11.2012 18:01 10,2 C 85 % 1018,7 hPa 0,0 l/m 9,0 km/h (2 Bft) W 270 7,8 C 10,2 C
07.11.2012 18:06 10,2 C 85 % 1018,8 hPa 0,0 l/m 20,5 km/h (4 Bft) W-SW 247 7,8 C 10,2 C
07.11.2012 18:11 10,2 C 84 % 1018,8 hPa 0,0 l/m 11,2 km/h (2 Bft) W 270 7,6 C 10,2 C
07.11.2012 18:16 10,2 C 84 % 1018,6 hPa 0,0 l/m 20,9 km/h (4 Bft) W 270 7,6 C 10,2 C
07.11.2012 18:21 10,2 C 84 % 1018,7 hPa 0,0 l/m 11,9 km/h (2 Bft) W 270 7,6 C 10,2 C
07.11.2012 18:26 10,2 C 84 % 1018,7 hPa 0,0 l/m 7,6 km/h (2 Bft) W 270 7,6 C 10,2 C
07.11.2012 18:31 10,2 C 84 % 1018,6 hPa 0,0 l/m 11,5 km/h (2 Bft) W-SW 247 7,6 C 10,2 C
07.11.2012 18:36 10,2 C 85 % 1018,7 hPa 0,0 l/m 19,4 km/h (3 Bft) W-SW 247 7,8 C 10,2 C
07.11.2012 18:41 10,2 C 85 % 1018,7 hPa 0,0 l/m 11,5 km/h (2 Bft) NW 315 7,8 C 10,2 C
07.11.2012 18:46 10,2 C 85 % 1018,7 hPa 0,0 l/m 20,9 km/h (4 Bft) W 270 7,8 C 10,2 C
07.11.2012 18:51 10,2 C 85 % 1018,7 hPa 0,0 l/m 22,7 km/h (4 Bft) W 270 7,8 C 10,2 C
07.11.2012 18:56 10,3 C 85 % 1018,7 hPa 0,0 l/m 20,9 km/h (4 Bft) W 270 7,9 C 10,3 C
07.11.2012 19:01 10,3 C 85 % 1018,9 hPa 0,0 l/m 14,4 km/h (3 Bft) W-SW 247 7,9 C 10,3 C
07.11.2012 19:06 10,3 C 84 % 1018,9 hPa 0,0 l/m 12,2 km/h (2 Bft) W 270 7,7 C 10,3 C
07.11.2012 19:11 10,3 C 83 % 1018,9 hPa 0,0 l/m 20,9 km/h (4 Bft) W-SW 247 7,5 C 10,3 C
07.11.2012 19:16 10,3 C 83 % 1018,9 hPa 0,0 l/m 12,2 km/h (2 Bft) S-SW 202 7,5 C 10,3 C
07.11.2012 19:21 10,3 C 82 % 1018,9 hPa 0,0 l/m 15,1 km/h (3 Bft) W-SW 247 7,4 C 10,3 C
07.11.2012 19:26 10,3 C 82 % 1019,0 hPa 0,0 l/m 6,5 km/h (2 Bft) W-SW 247 7,4 C 10,3 C
07.11.2012 19:31 10,3 C 82 % 1018,9 hPa 0,0 l/m 8,3 km/h (2 Bft) W-SW 247 7,4 C 10,3 C
07.11.2012 19:36 10,2 C 82 % 1019,0 hPa 0,0 l/m 7,9 km/h (2 Bft) W-SW 247 7,3 C 10,2 C
07.11.2012 19:41 10,2 C 82 % 1019,0 hPa 0,0 l/m 17,3 km/h (3 Bft) W-SW 247 7,3 C 10,2 C
07.11.2012 19:46 10,2 C 82 % 1019,1 hPa 0,0 l/m 24,8 km/h (4 Bft) W 270 7,3 C 10,2 C
07.11.2012 19:51 10,1 C 81 % 1019,2 hPa 0,0 l/m 7,2 km/h (2 Bft) W-NW 292 7,0 C 10,1 C
07.11.2012 19:56 10,1 C 81 % 1019,2 hPa 0,0 l/m 11,5 km/h (2 Bft) W 270 7,0 C 10,1 C
07.11.2012 20:01 10,1 C 80 % 1019,1 hPa 0,0 l/m 11,5 km/h (2 Bft) W-SW 247 6,8 C 10,1 C
07.11.2012 20:06 10,1 C 80 % 1019,1 hPa 0,0 l/m 13,3 km/h (3 Bft) W-SW 247 6,8 C 10,1 C
07.11.2012 20:11 10,1 C 80 % 1019,2 hPa 0,0 l/m 3,2 km/h (1 Bft) W 270 6,8 C 10,1 C
07.11.2012 20:16 10,2 C 80 % 1019,2 hPa 0,0 l/m 7,2 km/h (2 Bft) W-NW 292 6,9 C 10,2 C
07.11.2012 20:21 10,1 C 80 % 1019,1 hPa 0,0 l/m 13,3 km/h (3 Bft) W-NW 292 6,8 C 10,1 C
07.11.2012 20:26 10,1 C 80 % 1019,2 hPa 0,0 l/m 5,8 km/h (2 Bft) W 270 6,8 C 10,1 C
07.11.2012 20:31 10,1 C 80 % 1019,2 hPa 0,0 l/m 10,4 km/h (2 Bft) NW 315 6,8 C 10,1 C
07.11.2012 20:36 10,1 C 80 % 1019,3 hPa 0,0 l/m 5,0 km/h (1 Bft) W-NW 292 6,8 C 10,1 C
07.11.2012 20:41 9,9 C 81 % 1019,3 hPa 0,0 l/m 12,2 km/h (2 Bft) W 270 6,8 C 8,2 C
07.11.2012 20:46 9,9 C 81 % 1019,3 hPa 0,0 l/m 9,4 km/h (2 Bft) W-SW 247 6,8 C 8,6 C
07.11.2012 20:51 9,9 C 82 % 1019,4 hPa 0,0 l/m 10,1 km/h (2 Bft) W-NW 292 7,0 C 8,5 C
07.11.2012 20:56 9,9 C 82 % 1019,3 hPa 0,0 l/m 19,1 km/h (3 Bft) W-SW 247 7,0 C 7,3 C
07.11.2012 21:01 9,9 C 82 % 1019,3 hPa 0,0 l/m 21,6 km/h (4 Bft) W 270 7,0 C 7,1 C
07.11.2012 21:06 9,9 C 81 % 1019,4 hPa 0,0 l/m 20,9 km/h (4 Bft) W 270 6,8 C 7,2 C
07.11.2012 21:11 9,9 C 81 % 1019,3 hPa 0,0 l/m 24,5 km/h (4 Bft) N-NW 337 6,8 C 6,9 C
07.11.2012 21:16 9,9 C 81 % 1019,4 hPa 0,0 l/m 11,9 km/h (2 Bft) W-SW 247 6,8 C 8,2 C
07.11.2012 21:21 9,9 C 81 % 1019,4 hPa 0,0 l/m 5,0 km/h (1 Bft) W 270 6,8 C 9,6 C
07.11.2012 21:26 9,9 C 80 % 1019,3 hPa 0,0 l/m 6,5 km/h (2 Bft) W-NW 292 6,6 C 9,2 C
07.11.2012 21:31 9,9 C 80 % 1019,4 hPa 0,0 l/m 18,4 km/h (3 Bft) W 270 6,6 C 7,4 C
07.11.2012 21:36 9,8 C 80 % 1019,5 hPa 0,0 l/m 9,0 km/h (2 Bft) S-SW 202 6,5 C 8,6 C
07.11.2012 21:41 9,8 C 79 % 1019,3 hPa 0,0 l/m 9,7 km/h (2 Bft) W-SW 247 6,3 C 8,4 C
07.11.2012 21:46 9,8 C 79 % 1019,3 hPa 0,0 l/m 9,7 km/h (2 Bft) W-NW 292 6,3 C 8,4 C
07.11.2012 21:51 9,8 C 78 % 1019,4 hPa 0,0 l/m 6,8 km/h (2 Bft) W 270 6,1 C 9,0 C
07.11.2012 21:56 9,6 C 78 % 1019,4 hPa 0,0 l/m 14,4 km/h (3 Bft) W 270 6,0 C 7,5 C
07.11.2012 22:01 9,6 C 78 % 1019,6 hPa 0,0 l/m 25,2 km/h (4 Bft) W 270 6,0 C 6,4 C
07.11.2012 22:06 9,6 C 77 % 1019,5 hPa 0,0 l/m 7,6 km/h (2 Bft) W 270 5,8 C 8,6 C
07.11.2012 22:11 9,6 C 77 % 1019,6 hPa 0,0 l/m 11,5 km/h (2 Bft) W 270 5,8 C 7,9 C
07.11.2012 22:16 9,6 C 76 % 1019,7 hPa 0,0 l/m 15,5 km/h (3 Bft) W-NW 292 5,6 C 7,4 C
07.11.2012 22:21 9,6 C 76 % 1019,7 hPa 0,0 l/m 20,9 km/h (4 Bft) S-SW 202 5,6 C 6,8 C
07.11.2012 22:26 9,6 C 76 % 1019,6 hPa 0,0 l/m 17,3 km/h (3 Bft) W 270 5,6 C 7,2 C
07.11.2012 22:31 9,6 C 76 % 1019,6 hPa 0,0 l/m 20,9 km/h (4 Bft) W 270 5,6 C 6,8 C
07.11.2012 22:36 9,6 C 76 % 1019,5 hPa 0,0 l/m 9,4 km/h (2 Bft) W 270 5,6 C 8,3 C
07.11.2012 22:41 9,5 C 76 % 1019,6 hPa 0,0 l/m 15,8 km/h (3 Bft) W 270 5,5 C 7,2 C
07.11.2012 22:46 9,5 C 76 % 1019,4 hPa 0,0 l/m 20,2 km/h (4 Bft) W 270 5,5 C 6,7 C
07.11.2012 22:51 9,5 C 76 % 1019,6 hPa 0,0 l/m 14,4 km/h (3 Bft) W-NW 292 5,5 C 7,4 C
07.11.2012 22:56 9,4 C 77 % 1019,4 hPa 0,0 l/m 10,8 km/h (2 Bft) SW 225 5,6 C 7,8 C
07.11.2012 23:01 9,4 C 77 % 1019,5 hPa 0,0 l/m 24,8 km/h (4 Bft) W-SW 247 5,6 C 6,2 C
07.11.2012 23:06 9,4 C 77 % 1019,6 hPa 0,0 l/m 10,4 km/h (2 Bft) W-SW 247 5,6 C 7,8 C
07.11.2012 23:11 9,3 C 77 % 1019,4 hPa 0,0 l/m 23,8 km/h (4 Bft) W-SW 247 5,5 C 6,1 C
07.11.2012 23:16 9,3 C 78 % 1019,4 hPa 0,0 l/m 16,6 km/h (3 Bft) W-NW 292 5,7 C 6,9 C
07.11.2012 23:21 9,3 C 78 % 1019,6 hPa 0,0 l/m 16,9 km/h (3 Bft) W-SW 247 5,7 C 6,8 C
07.11.2012 23:26 9,3 C 78 % 1019,4 hPa 0,0 l/m 26,6 km/h (4 Bft) W-SW 247 5,7 C 5,9 C
07.11.2012 23:31 9,3 C 79 % 1019,4 hPa 0,0 l/m 12,6 km/h (3 Bft) W 270 5,8 C 7,4 C
07.11.2012 23:36 9,3 C 79 % 1019,3 hPa 0,0 l/m 19,1 km/h (3 Bft) W 270 5,8 C 6,6 C
07.11.2012 23:41 9,3 C 79 % 1019,3 hPa 0,0 l/m 15,5 km/h (3 Bft) SW 225 5,8 C 7,0 C
07.11.2012 23:46 9,3 C 79 % 1019,3 hPa 0,0 l/m 11,5 km/h (2 Bft) W 270 5,8 C 7,5 C
07.11.2012 23:51 9,3 C 79 % 1019,3 hPa 0,0 l/m 24,1 km/h (4 Bft) W-SW 247 5,8 C 6,1 C
07.11.2012 23:56 9,2 C 79 % 1019,3 hPa 0,0 l/m 16,9 km/h (3 Bft) W-SW 247 5,8 C 6,7 C
_ Min-Zeit 00:46 22:16 01:41 - 08:46 - - 00:01 00:26
Minimum _ 6,0 C 76 % 1009,6 hPa - 1,8 km/h (1 Bft) - - 4,1 C 1,1 C
_ Max-Zeit 13:06 06:36 22:16 00:21 00:26 - - 14:51 13:06
Maximum _ 11,1 C 93 % 1019,7 hPa 0,5 l/m 34,9 km/h
SW (5 Bft)
- - 9,1 C 11,1 C
Durchschnitt _ 9,1 C 87 % 1015,5 hPa #2,6 l/m 13,5 km/h (3 Bft) W - 7,0 C 7,8 C
(c) by David Heller